createdAt,value
2023-05-21T00:02:18.831Z,6.28
2023-05-21T00:04:47.533Z,6.35
2023-05-21T00:07:15.485Z,6.57
2023-05-21T00:09:42.528Z,6.60
2023-05-21T00:12:09.930Z,7.40
2023-05-21T00:14:36.975Z,6.40
2023-05-21T00:17:04.039Z,6.63
2023-05-21T00:19:32.718Z,6.88
2023-05-21T00:22:02.334Z,7.28
2023-05-21T00:24:29.594Z,7.05
2023-05-21T00:26:56.636Z,7.45
2023-05-21T00:29:24.203Z,7.55
2023-05-21T00:31:52.220Z,6.70
2023-05-21T00:34:19.396Z,7.00
2023-05-21T00:36:46.791Z,6.88
2023-05-21T00:39:13.840Z,6.25
2023-05-21T00:41:43.074Z,6.68
2023-05-21T00:44:10.197Z,6.53
2023-05-21T00:46:37.472Z,6.78
2023-05-21T00:49:04.775Z,6.95
2023-05-21T00:51:31.747Z,6.78
2023-05-21T00:53:59.272Z,6.00
2023-05-21T00:56:27.440Z,6.55
2023-05-21T00:58:57.322Z,6.35
2023-05-21T01:01:26.023Z,5.57
2023-05-21T01:03:57.550Z,6.15
2023-05-21T01:06:24.573Z,5.70
2023-05-21T01:08:51.635Z,5.53
2023-05-21T01:11:21.594Z,5.70
2023-05-21T01:13:49.535Z,5.35
2023-05-21T01:16:17.929Z,5.55
2023-05-21T01:18:45.302Z,5.72
2023-05-21T01:21:13.697Z,3.80
2023-05-21T01:23:40.994Z,5.40
2023-05-21T01:26:08.539Z,5.55
2023-05-21T01:28:35.652Z,5.30
2023-05-21T01:31:16.408Z,5.57
2023-05-21T01:33:48.829Z,5.45
2023-05-21T01:36:24.295Z,5.38
2023-05-21T01:41:33.614Z,5.95
2023-05-21T01:44:02.011Z,5.63
2023-05-21T01:46:31.451Z,5.25
2023-05-21T01:48:59.564Z,5.32
2023-05-21T01:51:27.835Z,5.10
2023-05-21T01:53:54.807Z,4.95
2023-05-21T01:56:25.757Z,5.10
2023-05-21T01:58:52.941Z,5.15
2023-05-21T02:01:20.422Z,4.78
2023-05-21T02:03:47.565Z,4.90
2023-05-21T02:06:14.541Z,4.65
2023-05-21T02:08:41.535Z,4.25
2023-05-21T02:11:09.094Z,4.80
2023-05-21T02:13:42.789Z,4.53
2023-05-21T02:16:14.779Z,3.20
2023-05-21T02:18:46.473Z,4.50
2023-05-21T02:21:13.522Z,4.95
2023-05-21T02:23:42.561Z,4.97
2023-05-21T02:26:09.542Z,4.40
2023-05-21T02:28:36.614Z,4.65
2023-05-21T02:31:04.002Z,4.47
2023-05-21T02:33:31.160Z,4.28
2023-05-21T02:35:58.311Z,3.70
2023-05-21T02:38:25.945Z,4.40
2023-05-21T02:40:53.154Z,4.40
2023-05-21T02:43:20.365Z,4.10
2023-05-21T02:45:47.756Z,4.22
2023-05-21T02:48:15.053Z,3.78
2023-05-21T02:50:42.622Z,4.20
2023-05-21T02:53:09.643Z,4.03
2023-05-21T02:55:36.945Z,4.32
2023-05-21T02:58:04.660Z,4.30
2023-05-21T03:00:35.056Z,3.90
2023-05-21T03:03:02.200Z,4.10
2023-05-21T03:05:29.306Z,3.80
2023-05-21T03:07:56.496Z,4.15
2023-05-21T03:10:23.496Z,4.47
2023-05-21T03:12:50.865Z,4.53
2023-05-21T03:15:18.205Z,4.13
2023-05-21T03:17:45.291Z,4.65
2023-05-21T03:20:18.600Z,4.65
2023-05-21T03:22:46.379Z,4.35
2023-05-21T03:25:13.519Z,5.60
2023-05-21T03:27:40.811Z,5.15
2023-05-21T03:30:19.511Z,5.40
2023-05-21T03:33:06.635Z,5.15
2023-05-21T03:35:34.078Z,5.53
2023-05-21T03:38:04.109Z,5.57
2023-05-21T03:40:31.153Z,5.22
2023-05-21T03:42:58.178Z,5.95
2023-05-21T03:45:25.317Z,5.97
2023-05-21T03:48:11.208Z,6.03
2023-05-21T03:50:38.342Z,6.63
2023-05-21T03:53:05.447Z,6.25
2023-05-21T03:55:32.697Z,6.05
2023-05-21T03:57:59.789Z,6.85
2023-05-21T04:00:27.387Z,6.03
2023-05-21T04:02:54.712Z,5.63
2023-05-21T04:05:21.757Z,4.25
2023-05-21T04:07:50.075Z,5.75
2023-05-21T04:10:17.159Z,6.32
2023-05-21T04:12:44.202Z,5.28
2023-05-21T04:15:11.333Z,6.18
2023-05-21T04:17:39.960Z,5.75
2023-05-21T04:20:07.889Z,5.93
2023-05-21T04:22:35.349Z,6.55
2023-05-21T04:25:02.897Z,6.68
2023-05-21T04:27:35.329Z,6.53
2023-05-21T04:30:04.252Z,6.50
2023-05-21T04:32:34.932Z,6.22
2023-05-21T04:35:02.094Z,6.85
2023-05-21T04:37:30.136Z,6.20
2023-05-21T04:40:01.554Z,6.43
2023-05-21T04:42:30.041Z,6.18
2023-05-21T04:44:59.344Z,5.80
2023-05-21T04:47:30.393Z,5.63
2023-05-21T04:49:59.418Z,6.30
2023-05-21T04:52:28.124Z,5.20
2023-05-21T04:54:55.168Z,5.43
2023-05-21T04:57:24.987Z,5.75
2023-05-21T04:59:52.764Z,4.97
2023-05-21T05:02:19.971Z,5.20
2023-05-21T05:04:46.941Z,5.20
2023-05-21T05:07:15.045Z,5.13
2023-05-21T05:09:42.013Z,2.90
2023-05-21T05:12:09.210Z,5.15
2023-05-21T05:14:36.275Z,4.30
2023-05-21T05:17:03.685Z,4.25
2023-05-21T05:19:31.965Z,3.90
2023-05-21T05:21:59.287Z,4.40
2023-05-21T05:24:26.251Z,3.88
2023-05-21T05:26:53.323Z,4.35
2023-05-21T05:29:20.483Z,4.10
2023-05-21T05:31:47.888Z,4.70
2023-05-21T05:34:15.777Z,4.15
2023-05-21T05:36:42.795Z,4.38
2023-05-21T05:39:10.289Z,4.38
2023-05-21T05:41:38.038Z,4.50
2023-05-21T05:44:06.944Z,4.75
2023-05-21T05:46:37.451Z,4.30
2023-05-21T05:49:04.584Z,4.32
2023-05-21T05:51:31.684Z,3.30
2023-05-21T05:53:59.159Z,4.45
2023-05-21T05:56:27.029Z,3.45
2023-05-21T05:58:54.108Z,3.75
2023-05-21T06:01:24.584Z,3.83
2023-05-21T06:03:52.123Z,4.20
2023-05-21T06:06:19.638Z,3.63
2023-05-21T06:08:47.532Z,3.70
2023-05-21T06:11:17.243Z,3.45
2023-05-21T06:13:45.696Z,3.53
2023-05-21T06:16:33.961Z,3.53
2023-05-21T06:19:01.230Z,3.67
2023-05-21T06:21:28.512Z,3.28
2023-05-21T06:23:55.856Z,3.40
2023-05-21T06:26:23.248Z,3.25
2023-05-21T06:28:51.777Z,3.20
2023-05-21T06:31:19.054Z,3.75
2023-05-21T06:33:46.236Z,3.53
2023-05-21T06:36:13.253Z,2.85
2023-05-21T06:38:40.971Z,3.40
2023-05-21T06:41:08.049Z,2.75
2023-05-21T06:43:55.342Z,3.47
2023-05-21T06:46:40.951Z,3.35
2023-05-21T06:49:09.234Z,2.58
2023-05-21T06:51:36.324Z,3.25
2023-05-21T06:54:04.410Z,3.38
2023-05-21T06:56:31.946Z,3.63
2023-05-21T06:58:59.397Z,3.10
2023-05-21T07:01:27.653Z,3.35
2023-05-21T07:03:54.712Z,3.17
2023-05-21T07:06:22.299Z,3.38
2023-05-21T07:08:49.977Z,3.13
2023-05-21T07:11:17.197Z,2.90
2023-05-21T07:13:44.248Z,3.25
2023-05-21T07:16:12.239Z,4.20
2023-05-21T07:18:40.780Z,3.13
2023-05-21T07:21:07.833Z,3.10
2023-05-21T07:23:36.125Z,2.97
2023-05-21T07:26:03.255Z,3.22
2023-05-21T07:28:30.275Z,2.90
2023-05-21T07:30:57.273Z,3.20
2023-05-21T07:33:31.376Z,3.58
2023-05-21T07:35:58.408Z,3.13
2023-05-21T07:38:26.171Z,3.20
2023-05-21T07:40:53.257Z,3.45
2023-05-21T07:43:20.963Z,3.15
2023-05-21T07:45:48.080Z,3.10
2023-05-21T07:48:15.296Z,3.05
2023-05-21T07:50:52.735Z,3.45
2023-05-21T07:53:20.439Z,2.90
2023-05-21T07:55:48.010Z,3.65
2023-05-21T07:58:20.097Z,3.20
2023-05-21T08:00:48.346Z,3.55
2023-05-21T08:03:18.730Z,3.22
2023-05-21T08:05:49.224Z,3.58
2023-05-21T08:08:17.887Z,3.35
2023-05-21T08:10:46.494Z,3.55
2023-05-21T08:13:14.890Z,3.50
2023-05-21T08:15:42.417Z,3.28
2023-05-21T08:18:10.123Z,3.47
2023-05-21T08:20:37.419Z,3.33
2023-05-21T08:23:04.878Z,3.10
2023-05-21T08:25:40.000Z,3.30
2023-05-21T08:28:07.651Z,3.40
2023-05-21T08:30:35.228Z,3.70
2023-05-21T08:33:02.582Z,3.65
2023-05-21T08:35:32.178Z,3.70
2023-05-21T08:38:25.218Z,3.38
2023-05-21T08:41:12.454Z,4.07
2023-05-21T08:43:39.821Z,3.80
2023-05-21T08:46:12.638Z,3.65
2023-05-21T08:48:41.500Z,3.80
2023-05-21T08:51:08.753Z,4.32
2023-05-21T08:53:45.619Z,3.92
2023-05-21T08:56:18.163Z,4.28
2023-05-21T08:58:57.283Z,18.50
2023-05-21T09:01:28.030Z,14.00
2023-05-21T09:04:20.751Z,6.50
2023-05-21T09:06:52.036Z,4.78
2023-05-21T09:09:36.808Z,4.50
2023-05-21T09:12:04.282Z,4.60
2023-05-21T09:14:32.696Z,5.03
2023-05-21T09:17:04.809Z,5.18
2023-05-21T09:19:32.508Z,4.95
2023-05-21T09:22:04.549Z,5.25
2023-05-21T09:24:36.090Z,5.38
2023-05-21T09:27:07.514Z,5.20
2023-05-21T09:29:35.593Z,5.85
2023-05-21T09:32:07.852Z,5.22
2023-05-21T09:34:37.196Z,5.78
2023-05-21T09:37:13.506Z,4.97
2023-05-21T09:39:48.017Z,5.43
2023-05-21T09:42:16.276Z,5.00
2023-05-21T09:44:44.211Z,4.63
2023-05-21T09:47:11.276Z,4.57
2023-05-21T09:49:38.339Z,5.65
2023-05-21T09:52:05.763Z,5.07
2023-05-21T09:54:34.269Z,6.10
2023-05-21T09:57:02.802Z,5.15
2023-05-21T09:59:39.774Z,4.95
2023-05-21T10:02:21.956Z,4.65
2023-05-21T10:04:54.371Z,5.13
2023-05-21T10:07:28.820Z,5.45
2023-05-21T10:09:57.948Z,5.47
2023-05-21T10:12:25.672Z,5.63
2023-05-21T10:15:01.304Z,5.60
2023-05-21T10:17:29.698Z,5.55
2023-05-21T10:19:57.276Z,5.85
2023-05-21T10:22:28.006Z,5.70
2023-05-21T10:24:55.416Z,5.78
2023-05-21T10:27:23.148Z,6.05
2023-05-21T10:29:50.792Z,6.57
2023-05-21T10:32:18.428Z,5.78
2023-05-21T10:34:46.779Z,6.25
2023-05-21T10:37:14.840Z,6.10
2023-05-21T10:39:45.839Z,5.75
2023-05-21T10:42:27.217Z,5.90
2023-05-21T10:45:37.298Z,6.60
2023-05-21T10:48:16.449Z,6.57
2023-05-21T10:50:56.689Z,7.28
2023-05-21T10:53:32.195Z,6.75
2023-05-21T10:56:41.835Z,6.97
2023-05-21T10:59:22.207Z,7.10
2023-05-21T11:01:54.137Z,5.82
2023-05-21T11:04:27.531Z,6.05
2023-05-21T11:06:56.268Z,6.13
2023-05-21T11:09:23.601Z,6.15
2023-05-21T11:11:52.766Z,6.28
2023-05-21T11:14:26.365Z,6.65
2023-05-21T11:16:53.478Z,6.90
2023-05-21T11:19:20.758Z,6.50
2023-05-21T11:21:51.574Z,6.60
2023-05-21T11:24:21.493Z,6.78
2023-05-21T11:26:48.385Z,7.03
2023-05-21T11:29:15.941Z,7.55
2023-05-21T11:31:47.533Z,7.15
2023-05-21T11:34:20.174Z,7.03
2023-05-21T11:36:48.649Z,7.30
2023-05-21T11:39:23.993Z,7.22
2023-05-21T11:44:40.158Z,7.85
2023-05-21T11:47:09.217Z,8.02
2023-05-21T11:49:37.310Z,7.20
2023-05-21T11:52:06.126Z,7.05
2023-05-21T11:54:36.915Z,7.32
2023-05-21T11:57:10.284Z,7.38
2023-05-21T11:59:37.473Z,6.90
2023-05-21T12:02:05.001Z,6.63
2023-05-21T12:04:37.755Z,7.22
2023-05-21T12:07:09.125Z,6.85
2023-05-21T12:09:40.869Z,6.13
2023-05-21T12:12:13.421Z,5.78
2023-05-21T12:14:43.360Z,6.43
2023-05-21T12:17:10.610Z,6.65
2023-05-21T12:19:38.409Z,5.78
2023-05-21T12:22:06.296Z,6.75
2023-05-21T12:24:34.540Z,6.35
2023-05-21T12:27:03.731Z,7.07
2023-05-21T12:29:32.332Z,6.32
2023-05-21T12:32:03.880Z,6.03
2023-05-21T12:34:51.320Z,6.20
2023-05-21T12:37:26.479Z,6.30
2023-05-21T12:39:55.260Z,6.18
2023-05-21T12:42:35.579Z,5.78
2023-05-21T12:45:10.190Z,6.57
2023-05-21T12:47:37.470Z,6.53
2023-05-21T12:50:08.389Z,7.10
2023-05-21T12:52:35.608Z,6.72
2023-05-21T12:55:02.712Z,7.20
2023-05-21T12:57:41.028Z,6.70
2023-05-21T13:00:09.097Z,7.68
2023-05-21T13:02:44.542Z,7.05
2023-05-21T13:05:19.696Z,7.18
2023-05-21T13:07:47.857Z,7.20
2023-05-21T13:10:16.393Z,6.78
2023-05-21T13:12:44.649Z,7.25
2023-05-21T13:15:12.575Z,6.78
2023-05-21T13:17:39.731Z,7.43
2023-05-21T13:20:07.532Z,7.13
2023-05-21T13:22:35.664Z,7.15
2023-05-21T13:25:03.296Z,6.75
2023-05-21T13:27:30.526Z,6.85
2023-05-21T13:29:58.033Z,6.97
2023-05-21T13:32:25.043Z,6.82
2023-05-21T13:34:52.068Z,6.65
2023-05-21T13:37:20.502Z,6.18
2023-05-21T13:39:47.858Z,6.28
2023-05-21T13:42:15.932Z,6.18
2023-05-21T13:44:43.321Z,5.95
2023-05-21T13:47:10.631Z,5.35
2023-05-21T13:49:38.671Z,6.40
2023-05-21T13:52:06.992Z,5.53
2023-05-21T13:54:34.197Z,6.18
2023-05-21T13:57:01.286Z,6.00
2023-05-21T13:59:29.269Z,6.68
2023-05-21T14:01:58.178Z,7.43
2023-05-21T14:04:25.213Z,6.57
2023-05-21T14:06:52.452Z,6.45
2023-05-21T14:09:19.636Z,6.40
2023-05-21T14:11:46.676Z,6.32
2023-05-21T14:14:18.755Z,6.03
2023-05-21T14:16:49.749Z,6.00
2023-05-21T14:19:17.108Z,6.72
2023-05-21T14:21:44.440Z,6.93
2023-05-21T14:24:11.443Z,6.55
2023-05-21T14:26:41.604Z,6.80
2023-05-21T14:29:09.291Z,6.40
2023-05-21T14:31:37.315Z,6.50
2023-05-21T14:34:05.228Z,6.50
2023-05-21T14:36:32.594Z,6.85
2023-05-21T14:38:59.608Z,6.82
2023-05-21T14:41:27.343Z,7.30
2023-05-21T14:43:54.596Z,6.90
2023-05-21T14:46:21.808Z,6.68
2023-05-21T14:48:48.903Z,6.60
2023-05-21T14:51:16.456Z,7.10
2023-05-21T14:53:43.539Z,7.18
2023-05-21T14:56:10.502Z,6.75
2023-05-21T14:58:37.432Z,7.00
2023-05-21T15:01:04.532Z,6.97
2023-05-21T15:03:31.666Z,6.60
2023-05-21T15:05:58.927Z,6.93
2023-05-21T15:08:25.926Z,6.45
2023-05-21T15:10:52.909Z,7.00
2023-05-21T15:13:21.378Z,7.47
2023-05-21T15:15:49.520Z,6.80
2023-05-21T15:18:16.494Z,6.75
2023-05-21T15:20:43.586Z,6.88
2023-05-21T15:23:16.728Z,6.45
2023-05-21T15:25:44.371Z,7.22
2023-05-21T15:28:12.346Z,6.55
2023-05-21T15:30:39.953Z,7.35
2023-05-21T15:33:07.002Z,6.53
2023-05-21T15:35:36.624Z,6.45
2023-05-21T15:38:04.045Z,6.60
2023-05-21T15:40:32.206Z,6.35
2023-05-21T15:42:59.216Z,6.10
2023-05-21T15:45:26.257Z,6.40
2023-05-21T15:47:53.359Z,5.60
2023-05-21T15:50:20.448Z,5.93
2023-05-21T15:52:47.429Z,5.40
2023-05-21T15:55:14.499Z,5.60
2023-05-21T15:57:41.536Z,5.97
2023-05-21T16:00:09.942Z,6.20
2023-05-21T16:02:37.187Z,5.82
2023-05-21T16:05:04.460Z,6.10
2023-05-21T16:07:31.484Z,6.75
2023-05-21T16:09:58.483Z,6.10
2023-05-21T16:12:26.847Z,6.18
2023-05-21T16:14:53.771Z,6.45
2023-05-21T16:17:20.780Z,6.13
2023-05-21T16:19:47.910Z,6.10
2023-05-21T16:22:15.269Z,6.05
2023-05-21T16:24:42.269Z,5.90
2023-05-21T16:27:09.336Z,6.75
2023-05-21T16:29:37.600Z,6.80
2023-05-21T16:32:06.662Z,6.80
2023-05-21T16:34:34.463Z,6.35
2023-05-21T16:37:01.649Z,6.15
2023-05-21T16:39:28.602Z,6.20
2023-05-21T16:41:59.587Z,6.60
2023-05-21T16:44:27.213Z,6.75
2023-05-21T16:46:54.347Z,6.15
2023-05-21T16:49:21.312Z,6.57
2023-05-21T16:51:48.300Z,6.32
2023-05-21T16:54:15.420Z,12.38
2023-05-21T16:56:42.384Z,6.65
2023-05-21T16:59:09.504Z,5.78
2023-05-21T17:01:36.895Z,6.32
2023-05-21T17:04:04.119Z,6.00
2023-05-21T17:06:31.685Z,6.00
2023-05-21T17:08:58.668Z,5.80
2023-05-21T17:11:25.794Z,6.00
2023-05-21T17:13:52.780Z,6.60
2023-05-21T17:16:19.968Z,6.55
2023-05-21T17:18:47.097Z,6.70
2023-05-21T17:21:14.149Z,6.68
2023-05-21T17:23:42.844Z,6.13
2023-05-21T17:26:11.071Z,6.45
2023-05-21T17:28:38.070Z,6.35
2023-05-21T17:31:05.097Z,5.90
2023-05-21T17:33:32.272Z,6.28
2023-05-21T17:35:59.395Z,6.15
2023-05-21T17:38:26.376Z,6.75
2023-05-21T17:40:53.395Z,6.95
2023-05-21T17:43:20.468Z,6.78
2023-05-21T17:45:47.486Z,11.27
2023-05-21T17:48:14.547Z,10.38
2023-05-21T17:50:41.780Z,7.60
2023-05-21T17:53:08.862Z,7.00
2023-05-21T17:55:36.065Z,6.78
2023-05-21T17:58:03.091Z,6.93
2023-05-21T18:00:32.151Z,6.97
2023-05-21T18:02:59.171Z,7.22
2023-05-21T18:05:26.175Z,7.18
2023-05-21T18:07:53.240Z,7.80
2023-05-21T18:10:20.430Z,7.63
2023-05-21T18:12:47.503Z,7.28
2023-05-21T18:15:15.389Z,8.05
2023-05-21T18:17:42.373Z,7.78
2023-05-21T18:20:09.832Z,7.53
2023-05-21T18:22:36.987Z,8.27
2023-05-21T18:25:04.840Z,8.02
2023-05-21T18:27:31.901Z,7.68
2023-05-21T18:30:02.357Z,7.75
2023-05-21T18:32:29.953Z,7.72
2023-05-21T18:34:58.528Z,7.90
2023-05-21T18:37:27.177Z,7.80
2023-05-21T18:39:54.186Z,7.72
2023-05-21T18:42:21.161Z,8.18
2023-05-21T18:44:50.968Z,8.23
2023-05-21T18:47:17.948Z,8.05
2023-05-21T18:49:44.931Z,8.27
2023-05-21T18:52:11.922Z,9.18
2023-05-21T18:54:38.949Z,8.27
2023-05-21T18:57:06.169Z,8.57
2023-05-21T18:59:33.108Z,8.85
2023-05-21T19:02:00.226Z,8.93
2023-05-21T19:04:27.553Z,8.77
2023-05-21T19:06:54.890Z,8.82
2023-05-21T19:09:21.917Z,8.70
2023-05-21T19:11:49.350Z,8.70
2023-05-21T19:14:16.429Z,8.93
2023-05-21T19:16:43.510Z,9.88
2023-05-21T19:19:10.549Z,8.95
2023-05-21T19:21:37.614Z,9.50
2023-05-21T19:24:06.046Z,9.32
2023-05-21T19:26:33.336Z,9.65
2023-05-21T19:29:00.636Z,9.68
2023-05-21T19:31:27.684Z,9.25
2023-05-21T19:33:54.704Z,9.82
2023-05-21T19:36:21.963Z,10.27
2023-05-21T19:38:50.220Z,10.10
2023-05-21T19:41:18.166Z,11.30
2023-05-21T19:43:45.634Z,10.88
2023-05-21T19:46:13.175Z,10.65
2023-05-21T19:48:40.423Z,10.75
2023-05-21T19:51:07.482Z,9.73
2023-05-21T19:53:34.965Z,9.52
2023-05-21T19:56:02.140Z,10.50
2023-05-21T19:58:29.629Z,9.73
2023-05-21T20:00:59.251Z,10.55
2023-05-21T20:03:27.227Z,10.32
2023-05-21T20:05:54.686Z,10.18
2023-05-21T20:08:22.313Z,10.60
2023-05-21T20:10:51.790Z,11.45
2023-05-21T20:13:19.638Z,10.73
2023-05-21T20:15:47.893Z,10.65
2023-05-21T20:18:15.577Z,12.27
2023-05-21T20:20:43.259Z,12.23
2023-05-21T20:23:10.483Z,11.45
2023-05-21T20:25:37.474Z,11.98
2023-05-21T20:28:05.399Z,11.63
2023-05-21T20:30:34.173Z,14.23
2023-05-21T20:33:02.541Z,12.60
2023-05-21T20:35:30.267Z,11.75
2023-05-21T20:37:57.484Z,13.40
2023-05-21T20:40:24.531Z,12.57
2023-05-21T20:42:53.474Z,11.77
2023-05-21T20:45:21.931Z,12.30
2023-05-21T20:47:49.971Z,13.23
2023-05-21T20:50:25.782Z,12.60
2023-05-21T20:52:52.912Z,12.65
2023-05-21T20:55:20.906Z,12.50
2023-05-21T20:57:47.976Z,11.65
2023-05-21T21:00:16.123Z,11.65
2023-05-21T21:02:43.800Z,12.00
2023-05-21T21:05:11.366Z,11.90
2023-05-21T21:07:38.984Z,13.13
2023-05-21T21:10:06.345Z,14.00
2023-05-21T21:12:33.285Z,12.40
2023-05-21T21:15:00.357Z,13.15
2023-05-21T21:17:27.311Z,11.95
2023-05-21T21:19:54.386Z,11.48
2023-05-21T21:22:21.523Z,11.65
2023-05-21T21:24:48.610Z,11.57
2023-05-21T21:27:15.563Z,12.00
2023-05-21T21:29:42.607Z,11.00
2023-05-21T21:32:09.680Z,11.27
2023-05-21T21:34:36.626Z,11.75
2023-05-21T21:37:04.369Z,11.23
2023-05-21T21:39:31.315Z,11.68
2023-05-21T21:41:58.326Z,11.15
2023-05-21T21:44:25.344Z,12.18
2023-05-21T21:46:52.341Z,11.85
2023-05-21T21:49:19.415Z,10.77
2023-05-21T21:51:46.376Z,11.70
2023-05-21T21:54:13.286Z,12.77
2023-05-21T21:56:40.624Z,11.77
2023-05-21T21:59:07.637Z,11.90
2023-05-21T22:01:35.736Z,12.43
2023-05-21T22:04:02.772Z,12.07
2023-05-21T22:06:29.955Z,11.93
2023-05-21T22:08:57.049Z,12.32
2023-05-21T22:11:24.139Z,11.27
2023-05-21T22:13:51.133Z,13.05
2023-05-21T22:16:18.121Z,12.45
2023-05-21T22:18:46.148Z,11.45
2023-05-21T22:21:14.550Z,10.38
2023-05-21T22:23:41.629Z,10.15
2023-05-21T22:26:09.397Z,9.02
2023-05-21T22:28:36.387Z,8.75
2023-05-21T22:31:03.547Z,8.55
2023-05-21T22:33:31.371Z,8.20
2023-05-21T22:35:58.504Z,8.38
2023-05-21T22:38:25.844Z,7.80
2023-05-21T22:40:52.902Z,8.93
2023-05-21T22:43:19.943Z,8.32
2023-05-21T22:45:47.002Z,9.02
2023-05-21T22:48:14.307Z,8.35
2023-05-21T22:50:41.494Z,8.88
2023-05-21T22:53:08.604Z,9.02
2023-05-21T22:55:35.579Z,9.23
2023-05-21T22:58:02.641Z,9.63
2023-05-21T23:00:29.649Z,9.35
2023-05-21T23:02:56.810Z,9.27
2023-05-21T23:05:23.932Z,9.80
2023-05-21T23:07:51.093Z,9.88
2023-05-21T23:10:18.069Z,9.27
2023-05-21T23:12:45.098Z,9.50
2023-05-21T23:15:12.401Z,9.98
2023-05-21T23:17:39.392Z,9.57
2023-05-21T23:20:08.749Z,11.02
2023-05-21T23:22:36.738Z,10.60
2023-05-21T23:25:04.021Z,10.52
2023-05-21T23:27:31.525Z,10.20
2023-05-21T23:29:58.489Z,10.10
2023-05-21T23:32:25.809Z,9.75
2023-05-21T23:34:52.812Z,9.50
2023-05-21T23:37:19.964Z,9.05
2023-05-21T23:39:49.656Z,9.68
2023-05-21T23:42:17.633Z,10.20
2023-05-21T23:44:44.834Z,9.90
2023-05-21T23:47:11.870Z,10.15
2023-05-21T23:49:39.453Z,10.65
2023-05-21T23:52:07.005Z,10.07
2023-05-21T23:54:33.957Z,10.00
2023-05-21T23:57:02.105Z,10.07
2023-05-21T23:59:29.320Z,10.32
